Exeter, NH (03833)

7:18 AM EDT on August 30, 2016 (GMT -0400)
Wentworth St. | | Change Station

Elev 82 ft 42.98 °N, 70.97 °W | Updated 10 minutes ago

Scattered Clouds
Scattered Clouds
54.3 °F
Feels Like 54.3 °F
N
0.0
Wind Variable Wind from ENE

Today
High -- | Low -- °F
--% Chance of Precip.
Yesterday
High -- | Low -- °F
Precip. -- in
Pressure 30.15 in
Visibility 10.0 miles
Clouds Scattered Clouds 25000 ft
Dew Point 52 °F
Humidity 93%
Rainfall 0.00 in
Snow Depth Not available.
6:06 AM 7:21 PM
Waning Crescent, 4% visible
METAR KPSM 301058Z 30002KT 10SM SCT250 15/13 A3014 RMK AO2A SLP208 T01470126
Pressure 30.15 in
Visibility 10.0 miles
Clouds Scattered Clouds 25000 ft
Dew Point 52 °F
Humidity 93%
Rainfall 0.00 in
Snow Depth Not available.
6:06 AM 7:21 PM
Waning Crescent, 4% visible
METAR KPSM 301058Z 30002KT 10SM SCT250 15/13 A3014 RMK AO2A SLP208 T01470126

10-Day Weather Forecast

Almanac

Astronomy

Aug. 30, 2016 Rise Set
Actual Time
Civil Twilight
Nautical Twilight
Astronomical Twilight
Moon
Length of Visible Light
Length of Day
Tomorrow will be .
, % of the Moon is Illuminated

Today's Extremes

State Highs State Lows

Community

WunderPhotos

Upload Photos

1,935,804 photos uploaded!

WunderBlog® & News

Nearby

Air Quality

  Air Quality AQ Index Pollutant
Not available.

Snow Depth

Station Depth Elevation

Earthquake Activity

City Distance Mag. Time & Date
Minimum magnitude displayed is 2.5.

Coastal Water Temperatures

Place Temperature

Stations

Nearby Weather Stations

Station Location Temp. Windchill Dew Point Humidity Wind Precip. Elev Updated Type
                   

Watches & Warnings

There are currently no watches in effect.